sensor_id;sensor_type;location;lat;lon;timestamp;P1;durP1;ratioP1;P2;durP2;ratioP2
82920;SDS011;72696;52.372;9.722;2023-12-29T00:00:29;6.28;;;2.15;;
82920;SDS011;72696;52.372;9.722;2023-12-29T00:02:54;3.45;;;1.80;;
82920;SDS011;72696;52.372;9.722;2023-12-29T00:05:20;2.97;;;1.63;;
82920;SDS011;72696;52.372;9.722;2023-12-29T00:07:45;4.82;;;1.92;;
82920;SDS011;72696;52.372;9.722;2023-12-29T00:10:10;4.28;;;1.75;;
82920;SDS011;72696;52.372;9.722;2023-12-29T00:12:36;3.22;;;1.65;;
82920;SDS011;72696;52.372;9.722;2023-12-29T00:15:01;5.00;;;2.33;;
82920;SDS011;72696;52.372;9.722;2023-12-29T00:17:27;5.35;;;1.80;;
82920;SDS011;72696;52.372;9.722;2023-12-29T00:19:52;3.90;;;1.90;;
82920;SDS011;72696;52.372;9.722;2023-12-29T00:22:18;3.50;;;1.60;;
82920;SDS011;72696;52.372;9.722;2023-12-29T00:24:44;4.72;;;2.00;;
82920;SDS011;72696;52.372;9.722;2023-12-29T00:27:09;6.28;;;2.10;;
82920;SDS011;72696;52.372;9.722;2023-12-29T00:29:35;3.13;;;1.65;;
82920;SDS011;72696;52.372;9.722;2023-12-29T00:32:00;7.05;;;2.63;;
82920;SDS011;72696;52.372;9.722;2023-12-29T00:34:27;3.42;;;1.83;;
82920;SDS011;72696;52.372;9.722;2023-12-29T00:36:52;6.72;;;1.92;;
82920;SDS011;72696;52.372;9.722;2023-12-29T00:39:17;4.93;;;2.03;;
82920;SDS011;72696;52.372;9.722;2023-12-29T00:41:43;4.07;;;1.95;;
82920;SDS011;72696;52.372;9.722;2023-12-29T00:44:08;6.13;;;2.00;;
82920;SDS011;72696;52.372;9.722;2023-12-29T00:46:34;4.35;;;1.90;;
82920;SDS011;72696;52.372;9.722;2023-12-29T00:48:59;4.10;;;1.95;;
82920;SDS011;72696;52.372;9.722;2023-12-29T00:51:24;4.28;;;1.85;;
82920;SDS011;72696;52.372;9.722;2023-12-29T00:53:49;4.88;;;2.20;;
82920;SDS011;72696;52.372;9.722;2023-12-29T00:56:15;3.03;;;1.67;;
82920;SDS011;72696;52.372;9.722;2023-12-29T00:58:40;4.85;;;1.77;;
82920;SDS011;72696;52.372;9.722;2023-12-29T01:01:06;2.00;;;1.52;;
82920;SDS011;72696;52.372;9.722;2023-12-29T01:03:36;3.72;;;2.00;;
82920;SDS011;72696;52.372;9.722;2023-12-29T01:06:02;5.28;;;1.60;;
82920;SDS011;72696;52.372;9.722;2023-12-29T01:08:27;3.90;;;1.90;;
82920;SDS011;72696;52.372;9.722;2023-12-29T01:10:53;3.70;;;1.90;;
82920;SDS011;72696;52.372;9.722;2023-12-29T01:13:18;4.70;;;2.00;;
82920;SDS011;72696;52.372;9.722;2023-12-29T01:15:44;5.70;;;1.88;;
82920;SDS011;72696;52.372;9.722;2023-12-29T01:18:10;5.00;;;1.70;;
82920;SDS011;72696;52.372;9.722;2023-12-29T01:20:36;4.07;;;1.88;;
82920;SDS011;72696;52.372;9.722;2023-12-29T01:23:01;6.30;;;2.33;;
82920;SDS011;72696;52.372;9.722;2023-12-29T01:25:27;5.28;;;1.75;;
82920;SDS011;72696;52.372;9.722;2023-12-29T01:27:52;5.03;;;1.88;;
82920;SDS011;72696;52.372;9.722;2023-12-29T01:30:18;7.13;;;1.98;;
82920;SDS011;72696;52.372;9.722;2023-12-29T01:32:43;3.83;;;1.85;;
82920;SDS011;72696;52.372;9.722;2023-12-29T01:35:08;4.28;;;1.73;;
82920;SDS011;72696;52.372;9.722;2023-12-29T01:37:34;4.35;;;1.80;;
82920;SDS011;72696;52.372;9.722;2023-12-29T01:39:59;4.70;;;1.65;;
82920;SDS011;72696;52.372;9.722;2023-12-29T01:42:24;5.18;;;1.77;;
82920;SDS011;72696;52.372;9.722;2023-12-29T01:44:50;6.47;;;1.95;;
82920;SDS011;72696;52.372;9.722;2023-12-29T01:47:19;3.05;;;1.80;;
82920;SDS011;72696;52.372;9.722;2023-12-29T01:49:45;3.75;;;1.85;;
82920;SDS011;72696;52.372;9.722;2023-12-29T01:52:10;7.18;;;2.17;;
82920;SDS011;72696;52.372;9.722;2023-12-29T01:54:36;6.35;;;1.92;;
82920;SDS011;72696;52.372;9.722;2023-12-29T01:57:05;2.40;;;1.70;;
82920;SDS011;72696;52.372;9.722;2023-12-29T01:59:33;4.43;;;1.60;;
82920;SDS011;72696;52.372;9.722;2023-12-29T02:01:59;4.00;;;1.92;;
82920;SDS011;72696;52.372;9.722;2023-12-29T02:04:24;3.90;;;1.70;;
82920;SDS011;72696;52.372;9.722;2023-12-29T02:06:50;3.65;;;1.88;;
82920;SDS011;72696;52.372;9.722;2023-12-29T02:09:17;6.00;;;1.90;;
82920;SDS011;72696;52.372;9.722;2023-12-29T02:11:42;3.80;;;1.90;;
82920;SDS011;72696;52.372;9.722;2023-12-29T02:14:07;5.25;;;1.92;;
82920;SDS011;72696;52.372;9.722;2023-12-29T02:19:20;5.20;;;1.95;;
82920;SDS011;72696;52.372;9.722;2023-12-29T02:21:47;8.13;;;2.00;;
82920;SDS011;72696;52.372;9.722;2023-12-29T02:24:12;4.22;;;1.60;;
82920;SDS011;72696;52.372;9.722;2023-12-29T02:26:38;5.43;;;1.80;;
82920;SDS011;72696;52.372;9.722;2023-12-29T02:29:04;4.40;;;1.80;;
82920;SDS011;72696;52.372;9.722;2023-12-29T02:31:31;3.45;;;1.70;;
82920;SDS011;72696;52.372;9.722;2023-12-29T02:34:00;4.82;;;1.95;;
82920;SDS011;72696;52.372;9.722;2023-12-29T02:36:27;4.10;;;2.10;;
82920;SDS011;72696;52.372;9.722;2023-12-29T02:38:53;3.55;;;1.77;;
82920;SDS011;72696;52.372;9.722;2023-12-29T02:41:18;3.40;;;1.60;;
82920;SDS011;72696;52.372;9.722;2023-12-29T02:43:44;4.22;;;1.88;;
82920;SDS011;72696;52.372;9.722;2023-12-29T02:46:09;4.60;;;1.90;;
82920;SDS011;72696;52.372;9.722;2023-12-29T02:48:34;2.95;;;1.75;;
82920;SDS011;72696;52.372;9.722;2023-12-29T02:51:00;4.10;;;1.67;;
82920;SDS011;72696;52.372;9.722;2023-12-29T02:53:25;4.55;;;1.80;;
82920;SDS011;72696;52.372;9.722;2023-12-29T02:55:50;5.63;;;1.95;;
82920;SDS011;72696;52.372;9.722;2023-12-29T02:58:16;3.97;;;1.88;;
82920;SDS011;72696;52.372;9.722;2023-12-29T03:00:41;2.58;;;1.38;;
82920;SDS011;72696;52.372;9.722;2023-12-29T03:03:06;2.50;;;1.55;;
82920;SDS011;72696;52.372;9.722;2023-12-29T03:05:32;4.18;;;1.58;;
82920;SDS011;72696;52.372;9.722;2023-12-29T03:07:57;3.35;;;1.45;;
82920;SDS011;72696;52.372;9.722;2023-12-29T03:10:22;4.10;;;1.77;;
82920;SDS011;72696;52.372;9.722;2023-12-29T03:12:48;5.13;;;1.70;;
82920;SDS011;72696;52.372;9.722;2023-12-29T03:15:14;4.85;;;1.75;;
82920;SDS011;72696;52.372;9.722;2023-12-29T03:17:39;3.25;;;1.70;;
82920;SDS011;72696;52.372;9.722;2023-12-29T03:20:04;3.30;;;1.83;;
82920;SDS011;72696;52.372;9.722;2023-12-29T03:22:30;4.80;;;1.90;;
82920;SDS011;72696;52.372;9.722;2023-12-29T03:24:56;4.88;;;1.80;;
82920;SDS011;72696;52.372;9.722;2023-12-29T03:27:21;6.32;;;1.67;;
82920;SDS011;72696;52.372;9.722;2023-12-29T03:29:46;4.05;;;1.70;;
82920;SDS011;72696;52.372;9.722;2023-12-29T03:32:12;3.83;;;1.60;;
82920;SDS011;72696;52.372;9.722;2023-12-29T03:34:37;4.68;;;1.55;;
82920;SDS011;72696;52.372;9.722;2023-12-29T03:37:02;2.33;;;1.40;;
82920;SDS011;72696;52.372;9.722;2023-12-29T03:39:28;3.85;;;1.70;;
82920;SDS011;72696;52.372;9.722;2023-12-29T03:41:54;4.15;;;1.60;;
82920;SDS011;72696;52.372;9.722;2023-12-29T03:44:20;2.50;;;1.42;;
82920;SDS011;72696;52.372;9.722;2023-12-29T03:46:45;3.63;;;1.60;;
82920;SDS011;72696;52.372;9.722;2023-12-29T03:49:11;3.08;;;1.77;;
82920;SDS011;72696;52.372;9.722;2023-12-29T03:51:36;3.55;;;1.60;;
82920;SDS011;72696;52.372;9.722;2023-12-29T03:54:02;1.90;;;1.30;;
82920;SDS011;72696;52.372;9.722;2023-12-29T03:56:28;1.13;;;0.95;;
82920;SDS011;72696;52.372;9.722;2023-12-29T03:58:53;1.85;;;1.65;;
82920;SDS011;72696;52.372;9.722;2023-12-29T04:01:19;1.58;;;1.17;;
82920;SDS011;72696;52.372;9.722;2023-12-29T04:03:45;2.60;;;1.25;;
82920;SDS011;72696;52.372;9.722;2023-12-29T04:06:10;3.22;;;1.48;;
82920;SDS011;72696;52.372;9.722;2023-12-29T04:08:36;2.05;;;1.45;;
82920;SDS011;72696;52.372;9.722;2023-12-29T04:11:02;2.50;;;1.20;;
82920;SDS011;72696;52.372;9.722;2023-12-29T04:13:28;4.35;;;1.58;;
82920;SDS011;72696;52.372;9.722;2023-12-29T04:15:54;3.85;;;1.25;;
82920;SDS011;72696;52.372;9.722;2023-12-29T04:18:20;1.50;;;1.40;;
82920;SDS011;72696;52.372;9.722;2023-12-29T04:20:46;2.60;;;1.45;;
82920;SDS011;72696;52.372;9.722;2023-12-29T04:23:11;1.55;;;1.20;;
82920;SDS011;72696;52.372;9.722;2023-12-29T04:25:37;1.55;;;1.20;;
82920;SDS011;72696;52.372;9.722;2023-12-29T04:28:03;3.60;;;1.05;;
82920;SDS011;72696;52.372;9.722;2023-12-29T04:30:28;2.42;;;1.35;;
82920;SDS011;72696;52.372;9.722;2023-12-29T04:32:53;1.77;;;1.17;;
82920;SDS011;72696;52.372;9.722;2023-12-29T04:35:19;2.88;;;1.50;;
82920;SDS011;72696;52.372;9.722;2023-12-29T04:37:44;1.77;;;1.13;;
82920;SDS011;72696;52.372;9.722;2023-12-29T04:40:10;1.73;;;1.30;;
82920;SDS011;72696;52.372;9.722;2023-12-29T04:42:36;1.67;;;1.08;;
82920;SDS011;72696;52.372;9.722;2023-12-29T04:45:02;4.32;;;1.50;;
82920;SDS011;72696;52.372;9.722;2023-12-29T04:47:28;2.33;;;1.40;;
82920;SDS011;72696;52.372;9.722;2023-12-29T04:49:53;2.03;;;1.40;;
82920;SDS011;72696;52.372;9.722;2023-12-29T04:52:18;1.70;;;1.17;;
82920;SDS011;72696;52.372;9.722;2023-12-29T04:54:44;2.13;;;1.30;;
82920;SDS011;72696;52.372;9.722;2023-12-29T04:57:09;2.15;;;1.10;;
82920;SDS011;72696;52.372;9.722;2023-12-29T04:59:34;1.83;;;1.25;;
82920;SDS011;72696;52.372;9.722;2023-12-29T05:02:00;3.75;;;1.10;;
82920;SDS011;72696;52.372;9.722;2023-12-29T05:04:25;1.50;;;1.40;;
82920;SDS011;72696;52.372;9.722;2023-12-29T05:06:50;3.92;;;1.58;;
82920;SDS011;72696;52.372;9.722;2023-12-29T05:09:16;2.60;;;1.40;;
82920;SDS011;72696;52.372;9.722;2023-12-29T05:11:41;2.00;;;1.13;;
82920;SDS011;72696;52.372;9.722;2023-12-29T05:14:07;1.65;;;1.33;;
82920;SDS011;72696;52.372;9.722;2023-12-29T05:16:33;2.42;;;1.45;;
82920;SDS011;72696;52.372;9.722;2023-12-29T05:18:58;2.85;;;1.50;;
82920;SDS011;72696;52.372;9.722;2023-12-29T05:21:23;2.55;;;1.20;;
82920;SDS011;72696;52.372;9.722;2023-12-29T05:23:50;2.67;;;1.48;;
82920;SDS011;72696;52.372;9.722;2023-12-29T05:26:16;2.67;;;1.60;;
82920;SDS011;72696;52.372;9.722;2023-12-29T05:28:41;1.83;;;1.20;;
82920;SDS011;72696;52.372;9.722;2023-12-29T05:31:07;4.07;;;1.50;;
82920;SDS011;72696;52.372;9.722;2023-12-29T05:33:32;3.70;;;1.65;;
82920;SDS011;72696;52.372;9.722;2023-12-29T05:35:58;4.35;;;1.70;;
82920;SDS011;72696;52.372;9.722;2023-12-29T05:38:24;5.82;;;1.90;;
82920;SDS011;72696;52.372;9.722;2023-12-29T05:40:49;4.90;;;1.80;;
82920;SDS011;72696;52.372;9.722;2023-12-29T05:43:15;4.47;;;1.70;;
82920;SDS011;72696;52.372;9.722;2023-12-29T05:45:41;1.90;;;1.65;;
82920;SDS011;72696;52.372;9.722;2023-12-29T05:48:06;1.83;;;1.30;;
82920;SDS011;72696;52.372;9.722;2023-12-29T05:50:32;3.97;;;1.92;;
82920;SDS011;72696;52.372;9.722;2023-12-29T05:52:57;3.20;;;1.70;;
82920;SDS011;72696;52.372;9.722;2023-12-29T05:55:22;2.78;;;1.80;;
82920;SDS011;72696;52.372;9.722;2023-12-29T05:57:48;2.60;;;1.73;;
82920;SDS011;72696;52.372;9.722;2023-12-29T06:00:13;3.03;;;1.83;;
82920;SDS011;72696;52.372;9.722;2023-12-29T06:02:40;4.13;;;2.00;;
82920;SDS011;72696;52.372;9.722;2023-12-29T06:05:07;4.82;;;2.10;;
82920;SDS011;72696;52.372;9.722;2023-12-29T06:07:33;5.22;;;1.90;;
82920;SDS011;72696;52.372;9.722;2023-12-29T06:09:58;5.80;;;2.15;;
82920;SDS011;72696;52.372;9.722;2023-12-29T06:12:24;4.40;;;1.90;;
82920;SDS011;72696;52.372;9.722;2023-12-29T06:14:49;5.35;;;2.13;;
82920;SDS011;72696;52.372;9.722;2023-12-29T06:17:15;4.05;;;2.00;;
82920;SDS011;72696;52.372;9.722;2023-12-29T06:19:40;5.72;;;2.13;;
82920;SDS011;72696;52.372;9.722;2023-12-29T06:22:06;3.30;;;2.15;;
82920;SDS011;72696;52.372;9.722;2023-12-29T06:24:36;4.45;;;2.20;;
82920;SDS011;72696;52.372;9.722;2023-12-29T06:27:01;5.63;;;2.50;;
82920;SDS011;72696;52.372;9.722;2023-12-29T06:29:27;7.90;;;2.53;;
82920;SDS011;72696;52.372;9.722;2023-12-29T06:31:53;3.78;;;2.10;;
82920;SDS011;72696;52.372;9.722;2023-12-29T06:34:18;6.28;;;2.38;;
82920;SDS011;72696;52.372;9.722;2023-12-29T06:36:43;4.38;;;2.30;;
82920;SDS011;72696;52.372;9.722;2023-12-29T06:39:09;4.43;;;2.30;;
82920;SDS011;72696;52.372;9.722;2023-12-29T06:41:34;4.05;;;2.28;;
82920;SDS011;72696;52.372;9.722;2023-12-29T06:44:00;5.00;;;2.45;;
82920;SDS011;72696;52.372;9.722;2023-12-29T06:46:25;6.75;;;2.60;;
82920;SDS011;72696;52.372;9.722;2023-12-29T06:48:52;5.35;;;2.30;;
82920;SDS011;72696;52.372;9.722;2023-12-29T06:51:18;3.42;;;2.55;;
82920;SDS011;72696;52.372;9.722;2023-12-29T06:53:45;7.35;;;2.97;;
82920;SDS011;72696;52.372;9.722;2023-12-29T06:56:14;5.47;;;2.50;;
82920;SDS011;72696;52.372;9.722;2023-12-29T06:58:40;4.60;;;2.50;;
82920;SDS011;72696;52.372;9.722;2023-12-29T07:01:06;6.55;;;2.40;;
82920;SDS011;72696;52.372;9.722;2023-12-29T07:03:31;7.22;;;2.20;;
82920;SDS011;72696;52.372;9.722;2023-12-29T07:05:57;5.80;;;2.38;;
82920;SDS011;72696;52.372;9.722;2023-12-29T07:08:25;6.28;;;2.50;;
82920;SDS011;72696;52.372;9.722;2023-12-29T07:10:51;5.22;;;2.40;;
82920;SDS011;72696;52.372;9.722;2023-12-29T07:13:16;5.00;;;2.20;;
82920;SDS011;72696;52.372;9.722;2023-12-29T07:15:42;4.63;;;2.53;;
82920;SDS011;72696;52.372;9.722;2023-12-29T07:18:07;3.90;;;2.50;;
82920;SDS011;72696;52.372;9.722;2023-12-29T07:20:33;4.13;;;2.17;;
82920;SDS011;72696;52.372;9.722;2023-12-29T07:22:58;5.82;;;2.75;;
82920;SDS011;72696;52.372;9.722;2023-12-29T07:25:23;5.60;;;2.33;;
82920;SDS011;72696;52.372;9.722;2023-12-29T07:27:49;4.07;;;2.13;;
82920;SDS011;72696;52.372;9.722;2023-12-29T07:30:14;5.20;;;2.25;;
82920;SDS011;72696;52.372;9.722;2023-12-29T07:32:40;5.05;;;2.22;;
82920;SDS011;72696;52.372;9.722;2023-12-29T07:35:06;8.05;;;2.60;;
82920;SDS011;72696;52.372;9.722;2023-12-29T07:37:32;10.35;;;2.40;;
82920;SDS011;72696;52.372;9.722;2023-12-29T07:39:57;5.53;;;2.20;;
82920;SDS011;72696;52.372;9.722;2023-12-29T07:42:22;6.55;;;3.58;;
82920;SDS011;72696;52.372;9.722;2023-12-29T07:44:48;7.70;;;2.40;;
82920;SDS011;72696;52.372;9.722;2023-12-29T07:47:13;6.03;;;2.70;;
82920;SDS011;72696;52.372;9.722;2023-12-29T07:49:40;4.60;;;2.40;;
82920;SDS011;72696;52.372;9.722;2023-12-29T07:52:06;3.90;;;2.45;;
82920;SDS011;72696;52.372;9.722;2023-12-29T07:54:31;7.25;;;2.33;;
82920;SDS011;72696;52.372;9.722;2023-12-29T07:56:57;4.70;;;2.40;;
82920;SDS011;72696;52.372;9.722;2023-12-29T07:59:22;10.35;;;2.60;;
82920;SDS011;72696;52.372;9.722;2023-12-29T08:01:47;7.03;;;2.72;;
82920;SDS011;72696;52.372;9.722;2023-12-29T08:04:13;3.58;;;2.17;;
82920;SDS011;72696;52.372;9.722;2023-12-29T08:06:38;7.78;;;3.10;;
82920;SDS011;72696;52.372;9.722;2023-12-29T08:09:04;5.32;;;2.50;;
82920;SDS011;72696;52.372;9.722;2023-12-29T08:11:29;5.13;;;2.40;;
82920;SDS011;72696;52.372;9.722;2023-12-29T08:13:54;5.88;;;2.10;;
82920;SDS011;72696;52.372;9.722;2023-12-29T08:16:20;7.53;;;2.50;;
82920;SDS011;72696;52.372;9.722;2023-12-29T08:18:49;5.03;;;2.60;;
82920;SDS011;72696;52.372;9.722;2023-12-29T08:21:18;5.45;;;2.10;;
82920;SDS011;72696;52.372;9.722;2023-12-29T08:23:47;9.80;;;2.70;;
82920;SDS011;72696;52.372;9.722;2023-12-29T08:26:13;5.63;;;2.30;;
82920;SDS011;72696;52.372;9.722;2023-12-29T08:28:38;7.75;;;2.47;;
82920;SDS011;72696;52.372;9.722;2023-12-29T08:31:04;9.75;;;2.42;;
82920;SDS011;72696;52.372;9.722;2023-12-29T08:33:30;6.07;;;2.40;;
82920;SDS011;72696;52.372;9.722;2023-12-29T08:35:56;8.75;;;2.55;;
82920;SDS011;72696;52.372;9.722;2023-12-29T08:38:25;7.18;;;2.30;;
82920;SDS011;72696;52.372;9.722;2023-12-29T08:40:52;6.75;;;2.20;;
82920;SDS011;72696;52.372;9.722;2023-12-29T08:43:17;6.03;;;2.55;;
82920;SDS011;72696;52.372;9.722;2023-12-29T08:45:46;5.80;;;2.08;;
82920;SDS011;72696;52.372;9.722;2023-12-29T08:48:12;3.78;;;2.00;;
82920;SDS011;72696;52.372;9.722;2023-12-29T08:50:38;5.32;;;2.58;;
82920;SDS011;72696;52.372;9.722;2023-12-29T08:53:03;7.30;;;2.15;;
82920;SDS011;72696;52.372;9.722;2023-12-29T08:55:29;6.63;;;2.20;;
82920;SDS011;72696;52.372;9.722;2023-12-29T08:57:56;7.50;;;2.20;;
82920;SDS011;72696;52.372;9.722;2023-12-29T09:00:22;5.18;;;2.03;;
82920;SDS011;72696;52.372;9.722;2023-12-29T09:02:47;7.90;;;2.30;;
82920;SDS011;72696;52.372;9.722;2023-12-29T09:05:12;6.18;;;2.00;;
82920;SDS011;72696;52.372;9.722;2023-12-29T09:07:38;6.30;;;2.20;;
82920;SDS011;72696;52.372;9.722;2023-12-29T09:10:03;5.13;;;2.33;;
82920;SDS011;72696;52.372;9.722;2023-12-29T09:12:33;7.00;;;2.40;;
82920;SDS011;72696;52.372;9.722;2023-12-29T09:14:59;5.75;;;2.10;;
82920;SDS011;72696;52.372;9.722;2023-12-29T09:17:24;5.85;;;2.88;;
82920;SDS011;72696;52.372;9.722;2023-12-29T09:19:49;5.82;;;3.00;;
82920;SDS011;72696;52.372;9.722;2023-12-29T09:22:15;5.00;;;1.90;;
82920;SDS011;72696;52.372;9.722;2023-12-29T09:24:41;4.68;;;2.20;;
82920;SDS011;72696;52.372;9.722;2023-12-29T09:27:09;9.70;;;2.80;;
82920;SDS011;72696;52.372;9.722;2023-12-29T09:29:34;6.60;;;2.17;;
82920;SDS011;72696;52.372;9.722;2023-12-29T09:32:07;8.15;;;1.92;;
82920;SDS011;72696;52.372;9.722;2023-12-29T09:34:32;4.82;;;2.30;;
82920;SDS011;72696;52.372;9.722;2023-12-29T09:36:58;6.63;;;2.30;;
82920;SDS011;72696;52.372;9.722;2023-12-29T09:39:23;4.20;;;2.10;;
82920;SDS011;72696;52.372;9.722;2023-12-29T09:41:50;5.38;;;2.08;;
82920;SDS011;72696;52.372;9.722;2023-12-29T09:44:16;3.85;;;1.80;;
82920;SDS011;72696;52.372;9.722;2023-12-29T09:46:45;3.25;;;1.75;;
82920;SDS011;72696;52.372;9.722;2023-12-29T09:49:14;4.90;;;1.83;;
82920;SDS011;72696;52.372;9.722;2023-12-29T09:51:41;3.85;;;1.92;;
82920;SDS011;72696;52.372;9.722;2023-12-29T09:54:07;4.53;;;1.75;;
82920;SDS011;72696;52.372;9.722;2023-12-29T09:56:33;6.13;;;1.80;;
82920;SDS011;72696;52.372;9.722;2023-12-29T09:58:59;6.90;;;2.22;;
82920;SDS011;72696;52.372;9.722;2023-12-29T10:01:25;5.28;;;2.10;;
82920;SDS011;72696;52.372;9.722;2023-12-29T10:03:52;2.78;;;1.60;;
82920;SDS011;72696;52.372;9.722;2023-12-29T10:06:19;4.40;;;2.00;;
82920;SDS011;72696;52.372;9.722;2023-12-29T10:08:46;2.30;;;1.42;;
82920;SDS011;72696;52.372;9.722;2023-12-29T10:11:13;3.00;;;1.58;;
82920;SDS011;72696;52.372;9.722;2023-12-29T10:13:41;4.40;;;1.55;;
82920;SDS011;72696;52.372;9.722;2023-12-29T10:21:44;2.90;;;1.52;;
82920;SDS011;72696;52.372;9.722;2023-12-29T10:24:20;3.08;;;1.42;;
82920;SDS011;72696;52.372;9.722;2023-12-29T10:26:46;2.40;;;1.33;;
82920;SDS011;72696;52.372;9.722;2023-12-29T10:29:12;3.25;;;1.83;;
82920;SDS011;72696;52.372;9.722;2023-12-29T10:31:38;5.32;;;2.53;;
82920;SDS011;72696;52.372;9.722;2023-12-29T10:36:57;5.47;;;2.10;;
82920;SDS011;72696;52.372;9.722;2023-12-29T10:39:24;2.75;;;1.42;;
82920;SDS011;72696;52.372;9.722;2023-12-29T10:41:50;3.75;;;1.63;;
82920;SDS011;72696;52.372;9.722;2023-12-29T10:44:16;1.98;;;1.40;;
82920;SDS011;72696;52.372;9.722;2023-12-29T10:46:41;3.42;;;1.85;;
82920;SDS011;72696;52.372;9.722;2023-12-29T10:49:07;2.08;;;1.60;;
82920;SDS011;72696;52.372;9.722;2023-12-29T10:51:36;3.42;;;2.03;;
82920;SDS011;72696;52.372;9.722;2023-12-29T10:54:02;3.05;;;1.70;;
82920;SDS011;72696;52.372;9.722;2023-12-29T10:56:28;3.92;;;1.55;;
82920;SDS011;72696;52.372;9.722;2023-12-29T10:59:04;2.90;;;1.70;;
82920;SDS011;72696;52.372;9.722;2023-12-29T11:01:33;4.47;;;1.50;;
82920;SDS011;72696;52.372;9.722;2023-12-29T11:04:00;4.78;;;1.90;;
82920;SDS011;72696;52.372;9.722;2023-12-29T11:06:26;2.47;;;1.70;;
82920;SDS011;72696;52.372;9.722;2023-12-29T11:08:53;3.22;;;1.88;;
82920;SDS011;72696;52.372;9.722;2023-12-29T11:11:18;4.57;;;1.85;;
82920;SDS011;72696;52.372;9.722;2023-12-29T11:13:44;3.85;;;1.77;;
82920;SDS011;72696;52.372;9.722;2023-12-29T11:16:11;2.65;;;1.60;;
82920;SDS011;72696;52.372;9.722;2023-12-29T11:18:37;3.05;;;1.50;;
82920;SDS011;72696;52.372;9.722;2023-12-29T11:21:03;2.67;;;1.60;;
82920;SDS011;72696;52.372;9.722;2023-12-29T11:23:29;1.88;;;1.40;;
82920;SDS011;72696;52.372;9.722;2023-12-29T11:25:54;3.97;;;1.60;;
82920;SDS011;72696;52.372;9.722;2023-12-29T11:28:20;2.05;;;1.70;;
82920;SDS011;72696;52.372;9.722;2023-12-29T11:30:45;3.00;;;1.63;;
82920;SDS011;72696;52.372;9.722;2023-12-29T11:33:18;3.42;;;1.70;;
82920;SDS011;72696;52.372;9.722;2023-12-29T11:43:28;4.32;;;1.85;;
82920;SDS011;72696;52.372;9.722;2023-12-29T11:45:54;3.92;;;1.63;;
82920;SDS011;72696;52.372;9.722;2023-12-29T11:51:32;2.53;;;1.50;;
82920;SDS011;72696;52.372;9.722;2023-12-29T11:54:10;2.17;;;1.70;;
82920;SDS011;72696;52.372;9.722;2023-12-29T11:56:47;2.15;;;1.67;;
82920;SDS011;72696;52.372;9.722;2023-12-29T12:01:48;2.58;;;1.70;;
82920;SDS011;72696;52.372;9.722;2023-12-29T12:07:06;1.70;;;1.60;;
82920;SDS011;72696;52.372;9.722;2023-12-29T12:09:32;3.75;;;1.80;;
82920;SDS011;72696;52.372;9.722;2023-12-29T12:12:00;3.08;;;1.88;;
82920;SDS011;72696;52.372;9.722;2023-12-29T12:14:46;1.77;;;1.52;;
82920;SDS011;72696;52.372;9.722;2023-12-29T12:17:13;2.40;;;1.60;;
82920;SDS011;72696;52.372;9.722;2023-12-29T12:19:53;2.88;;;1.70;;
82920;SDS011;72696;52.372;9.722;2023-12-29T12:22:22;2.30;;;1.60;;
82920;SDS011;72696;52.372;9.722;2023-12-29T12:24:50;1.83;;;1.60;;
82920;SDS011;72696;52.372;9.722;2023-12-29T12:27:20;2.58;;;1.92;;
82920;SDS011;72696;52.372;9.722;2023-12-29T12:29:50;3.60;;;2.42;;
82920;SDS011;72696;52.372;9.722;2023-12-29T12:32:22;2.22;;;1.90;;
82920;SDS011;72696;52.372;9.722;2023-12-29T12:34:51;3.38;;;1.75;;
82920;SDS011;72696;52.372;9.722;2023-12-29T12:37:20;2.33;;;2.10;;
82920;SDS011;72696;52.372;9.722;2023-12-29T12:39:49;2.45;;;1.50;;
82920;SDS011;72696;52.372;9.722;2023-12-29T12:42:15;2.45;;;1.67;;
82920;SDS011;72696;52.372;9.722;2023-12-29T12:44:42;2.30;;;1.60;;
82920;SDS011;72696;52.372;9.722;2023-12-29T12:47:16;1.90;;;1.70;;
82920;SDS011;72696;52.372;9.722;2023-12-29T12:49:43;2.40;;;1.65;;
82920;SDS011;72696;52.372;9.722;2023-12-29T12:52:09;1.40;;;1.30;;
82920;SDS011;72696;52.372;9.722;2023-12-29T12:54:34;2.15;;;1.70;;
82920;SDS011;72696;52.372;9.722;2023-12-29T12:57:00;1.70;;;1.30;;
82920;SDS011;72696;52.372;9.722;2023-12-29T12:59:26;2.38;;;1.45;;
82920;SDS011;72696;52.372;9.722;2023-12-29T13:01:52;1.73;;;1.50;;
82920;SDS011;72696;52.372;9.722;2023-12-29T13:04:17;2.90;;;1.73;;
82920;SDS011;72696;52.372;9.722;2023-12-29T13:06:43;3.25;;;1.60;;
82920;SDS011;72696;52.372;9.722;2023-12-29T13:09:09;2.05;;;1.60;;
82920;SDS011;72696;52.372;9.722;2023-12-29T13:11:36;2.60;;;1.60;;
82920;SDS011;72696;52.372;9.722;2023-12-29T13:14:02;2.30;;;1.48;;
82920;SDS011;72696;52.372;9.722;2023-12-29T13:18:56;2.15;;;1.60;;
82920;SDS011;72696;52.372;9.722;2023-12-29T13:21:21;2.97;;;1.70;;
82920;SDS011;72696;52.372;9.722;2023-12-29T13:23:47;1.55;;;1.45;;
82920;SDS011;72696;52.372;9.722;2023-12-29T13:26:12;3.22;;;1.67;;
82920;SDS011;72696;52.372;9.722;2023-12-29T13:28:38;2.80;;;1.70;;
82920;SDS011;72696;52.372;9.722;2023-12-29T13:31:04;2.00;;;1.60;;
82920;SDS011;72696;52.372;9.722;2023-12-29T13:33:32;1.70;;;1.58;;
82920;SDS011;72696;52.372;9.722;2023-12-29T13:36:05;1.75;;;1.65;;
82920;SDS011;72696;52.372;9.722;2023-12-29T13:38:34;1.70;;;1.60;;
82920;SDS011;72696;52.372;9.722;2023-12-29T13:41:07;1.90;;;1.70;;
82920;SDS011;72696;52.372;9.722;2023-12-29T13:43:34;2.30;;;1.80;;
82920;SDS011;72696;52.372;9.722;2023-12-29T13:46:01;2.55;;;1.92;;
82920;SDS011;72696;52.372;9.722;2023-12-29T13:48:26;1.73;;;1.60;;
82920;SDS011;72696;52.372;9.722;2023-12-29T13:50:52;1.90;;;1.65;;
82920;SDS011;72696;52.372;9.722;2023-12-29T13:53:18;2.13;;;1.58;;
82920;SDS011;72696;52.372;9.722;2023-12-29T13:55:44;2.80;;;2.00;;
82920;SDS011;72696;52.372;9.722;2023-12-29T13:58:09;7.68;;;4.55;;
82920;SDS011;72696;52.372;9.722;2023-12-29T14:00:36;2.83;;;1.83;;
82920;SDS011;72696;52.372;9.722;2023-12-29T14:03:02;2.83;;;1.60;;
82920;SDS011;72696;52.372;9.722;2023-12-29T14:05:35;2.22;;;1.70;;
82920;SDS011;72696;52.372;9.722;2023-12-29T14:10:34;3.10;;;1.95;;
82920;SDS011;72696;52.372;9.722;2023-12-29T14:15:34;2.80;;;1.92;;
82920;SDS011;72696;52.372;9.722;2023-12-29T14:18:01;2.50;;;1.80;;
82920;SDS011;72696;52.372;9.722;2023-12-29T14:20:33;3.67;;;2.22;;
82920;SDS011;72696;52.372;9.722;2023-12-29T14:23:03;3.75;;;2.08;;
82920;SDS011;72696;52.372;9.722;2023-12-29T14:25:30;4.18;;;2.20;;
82920;SDS011;72696;52.372;9.722;2023-12-29T14:27:59;2.70;;;1.98;;
82920;SDS011;72696;52.372;9.722;2023-12-29T14:30:24;3.05;;;2.10;;
82920;SDS011;72696;52.372;9.722;2023-12-29T14:32:50;2.60;;;2.00;;
82920;SDS011;72696;52.372;9.722;2023-12-29T14:35:15;2.95;;;2.00;;
82920;SDS011;72696;52.372;9.722;2023-12-29T14:37:41;4.97;;;2.10;;
82920;SDS011;72696;52.372;9.722;2023-12-29T14:40:10;3.78;;;2.10;;
82920;SDS011;72696;52.372;9.722;2023-12-29T14:42:36;2.50;;;1.90;;
82920;SDS011;72696;52.372;9.722;2023-12-29T14:45:01;3.05;;;2.30;;
82920;SDS011;72696;52.372;9.722;2023-12-29T14:47:27;4.60;;;1.90;;
82920;SDS011;72696;52.372;9.722;2023-12-29T14:49:52;3.03;;;2.05;;
82920;SDS011;72696;52.372;9.722;2023-12-29T14:52:17;3.22;;;1.98;;
82920;SDS011;72696;52.372;9.722;2023-12-29T14:54:43;3.47;;;2.17;;
82920;SDS011;72696;52.372;9.722;2023-12-29T14:57:09;2.83;;;2.00;;
82920;SDS011;72696;52.372;9.722;2023-12-29T14:59:35;2.00;;;1.80;;
82920;SDS011;72696;52.372;9.722;2023-12-29T15:02:01;3.55;;;1.90;;
82920;SDS011;72696;52.372;9.722;2023-12-29T15:04:27;5.18;;;2.28;;
82920;SDS011;72696;52.372;9.722;2023-12-29T15:06:56;3.72;;;2.03;;
82920;SDS011;72696;52.372;9.722;2023-12-29T15:09:22;3.95;;;2.72;;
82920;SDS011;72696;52.372;9.722;2023-12-29T15:11:47;2.65;;;2.00;;
82920;SDS011;72696;52.372;9.722;2023-12-29T15:14:14;4.18;;;2.30;;
82920;SDS011;72696;52.372;9.722;2023-12-29T15:16:40;5.10;;;2.00;;